createdAt,value
2019-03-03T00:01:25.597Z,99873.34
2019-03-03T00:03:55.383Z,99876.38
2019-03-03T00:06:25.475Z,99866.88
2019-03-03T00:08:55.261Z,99866.88
2019-03-03T00:11:25.075Z,99867.58
2019-03-03T00:13:54.861Z,99867.07
2019-03-03T00:16:24.609Z,99872.03
2019-03-03T00:18:54.361Z,99876.39
2019-03-03T00:21:24.403Z,99865.15
2019-03-03T00:23:54.073Z,99881.45
2019-03-03T00:26:23.888Z,99881.75
2019-03-03T00:28:53.714Z,99870.01
2019-03-03T00:31:42.674Z,99865.35
2019-03-03T00:34:12.748Z,99858.67
2019-03-03T00:37:19.849Z,99863.13
2019-03-03T00:40:08.746Z,99862.02
2019-03-03T00:42:55.853Z,99864.54
2019-03-03T00:45:43.648Z,99861.61
2019-03-03T00:48:21.995Z,99850.58
2019-03-03T00:50:58.858Z,99855.23
2019-03-03T00:53:47.678Z,99863.73
2019-03-03T00:56:23.338Z,99848.35
2019-03-03T00:59:01.442Z,99851.69
2019-03-03T01:01:48.956Z,99847.23
2019-03-03T01:04:42.959Z,99839.95
2019-03-03T01:07:22.821Z,99846.32
2019-03-03T01:10:14.468Z,99835.50
2019-03-03T01:13:02.241Z,99830.94
2019-03-03T01:15:47.420Z,99848.35
2019-03-03T01:18:36.301Z,99831.95
2019-03-03T01:21:24.049Z,99823.15
2019-03-03T01:24:19.002Z,99838.53
2019-03-03T01:26:48.740Z,99824.70
2019-03-03T01:29:18.554Z,99820.75
2019-03-03T01:31:48.444Z,99818.81
2019-03-03T01:34:18.240Z,99819.13
2019-03-03T01:36:47.984Z,99812.75
2019-03-03T01:39:17.663Z,99814.95
2019-03-03T01:41:47.446Z,99807.17
2019-03-03T01:44:17.223Z,99814.35
2019-03-03T01:46:47.009Z,99797.03
2019-03-03T01:49:17.247Z,99800.28
2019-03-03T01:51:48.292Z,99808.06
2019-03-03T01:54:18.060Z,99784.77
2019-03-03T01:56:48.126Z,99793.48
2019-03-03T01:59:17.834Z,99787.20
2019-03-03T02:01:47.567Z,99779.89
2019-03-03T02:04:17.333Z,99771.48
2019-03-03T02:06:47.805Z,99767.66
2019-03-03T02:09:17.582Z,99763.41
2019-03-03T02:11:47.357Z,99759.45
2019-03-03T02:14:17.232Z,99739.30
2019-03-03T02:16:46.981Z,99735.56
2019-03-03T02:19:16.692Z,99739.30
2019-03-03T02:21:46.682Z,99740.61
2019-03-03T02:24:16.437Z,99734.13
2019-03-03T02:26:46.220Z,99720.30
2019-03-03T02:29:16.008Z,99726.61
2019-03-03T02:31:45.927Z,99725.91
2019-03-03T02:34:15.559Z,99741.72
2019-03-03T02:36:45.349Z,99712.63
2019-03-03T02:39:18.931Z,99728.93
2019-03-03T02:41:49.444Z,99715.70
2019-03-03T02:44:19.236Z,99707.99
2019-03-03T02:46:48.979Z,99712.44
2019-03-03T02:49:18.735Z,99708.18
2019-03-03T02:51:48.550Z,99703.82
2019-03-03T02:54:18.386Z,99698.12
2019-03-03T02:56:48.035Z,99704.11
2019-03-03T02:59:18.085Z,99685.80
2019-03-03T03:01:57.894Z,99678.27
2019-03-03T03:04:27.688Z,99682.95
2019-03-03T03:07:28.793Z,99682.95
2019-03-03T03:10:04.123Z,99660.16
2019-03-03T03:13:02.011Z,99651.53
2019-03-03T03:15:49.837Z,99657.84
2019-03-03T03:18:26.093Z,99662.11
2019-03-03T03:21:24.123Z,99666.24
2019-03-03T03:23:58.685Z,99654.58
2019-03-03T03:26:47.544Z,99652.95
2019-03-03T03:29:24.921Z,99642.23
2019-03-03T03:32:07.225Z,99646.80
2019-03-03T03:35:08.058Z,99648.13
2019-03-03T03:37:46.909Z,99637.69
2019-03-03T03:40:40.522Z,99627.87
2019-03-03T03:43:20.272Z,99616.66
2019-03-03T03:46:02.034Z,99620.07
2019-03-03T03:48:52.913Z,99618.72
2019-03-03T03:51:44.862Z,99618.34
2019-03-03T03:54:24.466Z,99622.97
2019-03-03T03:57:16.206Z,99615.21
2019-03-03T04:00:05.823Z,99617.53
2019-03-03T04:02:47.576Z,99612.39
2019-03-03T04:05:23.466Z,99628.28
2019-03-03T04:08:12.860Z,99608.45
2019-03-03T04:11:07.434Z,99612.45
2019-03-03T04:13:58.973Z,99599.59
2019-03-03T04:16:34.994Z,99617.06
2019-03-03T04:19:24.190Z,99594.28
2019-03-03T04:22:05.737Z,99598.23
2019-03-03T04:25:00.890Z,99602.63
2019-03-03T04:27:48.160Z,99601.44
2019-03-03T04:30:32.172Z,99594.06
2019-03-03T04:33:21.898Z,99599.55
2019-03-03T04:36:09.390Z,99604.63
2019-03-03T04:38:48.626Z,99612.89
2019-03-03T04:41:26.565Z,99618.81
2019-03-03T04:44:03.808Z,99607.00
2019-03-03T04:46:39.720Z,99593.02
2019-03-03T04:49:24.545Z,99593.02
2019-03-03T04:52:28.687Z,99596.87
2019-03-03T04:55:20.156Z,99600.23
2019-03-03T04:58:07.644Z,99588.70
2019-03-03T05:00:59.447Z,99564.05
2019-03-03T05:03:37.639Z,99558.61
2019-03-03T05:06:21.504Z,99572.05
2019-03-03T05:09:16.240Z,99582.98
2019-03-03T05:12:18.453Z,99572.59
2019-03-03T05:14:48.220Z,99571.18
2019-03-03T05:17:28.445Z,99614.58
2019-03-03T05:19:59.941Z,99582.80
2019-03-03T05:22:29.652Z,99562.88
2019-03-03T05:24:59.388Z,99565.82
2019-03-03T05:27:29.153Z,99576.17
2019-03-03T05:29:58.846Z,99560.05
2019-03-03T05:32:28.997Z,99559.05
2019-03-03T05:34:58.671Z,99544.90
2019-03-03T05:37:29.454Z,99539.95
2019-03-03T05:39:59.641Z,99544.34
2019-03-03T05:42:29.377Z,99571.02
2019-03-03T05:44:59.090Z,99543.48
2019-03-03T05:47:28.991Z,99559.14
2019-03-03T05:49:58.684Z,99542.66
2019-03-03T05:52:28.462Z,99525.38
2019-03-03T05:54:58.642Z,99523.97
2019-03-03T05:57:30.084Z,99519.84
2019-03-03T05:59:59.785Z,99520.61
2019-03-03T06:02:29.535Z,99523.65
2019-03-03T06:04:59.256Z,99518.16
2019-03-03T06:07:28.950Z,99512.31
2019-03-03T06:09:58.723Z,99509.58
2019-03-03T06:12:28.806Z,99512.40
2019-03-03T06:14:59.555Z,99503.50
2019-03-03T06:17:30.015Z,99502.73
2019-03-03T06:19:59.735Z,99507.18
2019-03-03T06:22:29.518Z,99495.75
2019-03-03T06:24:59.649Z,99510.49
2019-03-03T06:27:29.377Z,99508.05
2019-03-03T06:29:59.198Z,99517.48
2019-03-03T06:32:28.963Z,99521.70
2019-03-03T06:34:58.862Z,99507.31
2019-03-03T06:37:29.151Z,99514.44
2019-03-03T06:39:58.986Z,99511.04
2019-03-03T06:42:28.654Z,99514.22
2019-03-03T06:44:58.340Z,99514.13
2019-03-03T06:47:28.232Z,99520.30
2019-03-03T06:49:57.960Z,99525.97
2019-03-03T06:52:28.090Z,99507.95
2019-03-03T06:54:57.846Z,99510.08
2019-03-03T06:57:27.613Z,99520.52
2019-03-03T06:59:57.351Z,99507.27
2019-03-03T07:02:27.002Z,99511.35
2019-03-03T07:04:56.751Z,99516.93
2019-03-03T07:07:26.520Z,99508.45
2019-03-03T07:09:56.262Z,99518.28
2019-03-03T07:12:25.917Z,99514.38
2019-03-03T07:14:55.611Z,99517.22
2019-03-03T07:17:25.445Z,99506.89
2019-03-03T07:19:55.523Z,99522.61
2019-03-03T07:22:25.325Z,99512.81
2019-03-03T07:24:55.125Z,99512.81
2019-03-03T07:27:25.372Z,99510.87
2019-03-03T07:29:55.507Z,99540.73
2019-03-03T07:32:25.186Z,99523.55
2019-03-03T07:34:54.920Z,99515.03
2019-03-03T07:37:24.768Z,99480.21
2019-03-03T07:39:54.580Z,99511.31
2019-03-03T07:42:24.345Z,99532.75
2019-03-03T07:44:54.136Z,99516.56
2019-03-03T07:47:23.959Z,99530.94
2019-03-03T07:49:53.657Z,99536.70
2019-03-03T07:52:23.394Z,99524.77
2019-03-03T07:54:54.250Z,99530.02
2019-03-03T07:57:24.430Z,99531.84
2019-03-03T07:59:54.244Z,99530.73
2019-03-03T08:02:24.021Z,99526.39
2019-03-03T08:04:53.821Z,99532.38
2019-03-03T08:07:23.745Z,99535.19
2019-03-03T08:09:53.416Z,99531.47
2019-03-03T08:12:23.392Z,99535.19
2019-03-03T08:14:53.210Z,99539.22
2019-03-03T08:17:23.144Z,99541.14
2019-03-03T08:19:53.917Z,99563.00
2019-03-03T08:22:23.770Z,99550.87
2019-03-03T08:24:53.505Z,99553.09
2019-03-03T08:27:23.281Z,99555.73
2019-03-03T08:29:53.043Z,99555.33
2019-03-03T08:32:22.867Z,99541.98
2019-03-03T08:34:53.735Z,99554.72
2019-03-03T08:37:23.692Z,99555.50
2019-03-03T08:39:53.484Z,99552.50
2019-03-03T08:42:31.308Z,99555.50
2019-03-03T08:45:12.243Z,99564.92
2019-03-03T08:47:53.192Z,99559.25
2019-03-03T08:50:24.405Z,99554.72
2019-03-03T08:53:03.485Z,99567.06
2019-03-03T08:55:45.640Z,99561.57
2019-03-03T08:58:22.402Z,99553.41
2019-03-03T09:01:18.289Z,99576.27
2019-03-03T09:04:03.733Z,99564.53
2019-03-03T09:06:51.932Z,99541.45
2019-03-03T09:09:51.317Z,99565.53
2019-03-03T09:12:32.463Z,99574.33
2019-03-03T09:15:16.242Z,99566.94
2019-03-03T09:17:53.546Z,99571.08
2019-03-03T09:20:40.015Z,99564.50
2019-03-03T09:23:29.278Z,99563.50
2019-03-03T09:26:25.007Z,99559.55
2019-03-03T09:29:01.620Z,99566.81
2019-03-03T09:31:49.418Z,99561.38
2019-03-03T09:34:36.776Z,99556.61
2019-03-03T09:37:34.990Z,99551.04
2019-03-03T09:40:16.125Z,99558.12
2019-03-03T09:42:53.253Z,99564.09
2019-03-03T09:45:37.598Z,99557.11
2019-03-03T09:48:29.220Z,99561.56
2019-03-03T09:51:18.190Z,99562.18
2019-03-03T09:54:16.326Z,99565.63
2019-03-03T09:57:02.985Z,99563.69
2019-03-03T09:59:40.460Z,99561.56
2019-03-03T10:02:29.237Z,99559.34
2019-03-03T10:05:16.831Z,99553.77
2019-03-03T10:07:58.618Z,99546.88
2019-03-03T10:10:38.271Z,99553.55
2019-03-03T10:13:39.219Z,99551.51
2019-03-03T10:16:26.995Z,99549.70
2019-03-03T10:19:32.063Z,99552.11
2019-03-03T10:22:21.212Z,99543.91
2019-03-03T10:25:03.353Z,99551.30
2019-03-03T10:27:52.499Z,99553.52
2019-03-03T10:30:42.648Z,99543.59
2019-03-03T10:33:36.321Z,99555.64
2019-03-03T10:36:23.725Z,99550.35
2019-03-03T10:39:00.437Z,99544.09
2019-03-03T10:41:42.792Z,99543.46
2019-03-03T10:44:29.679Z,99540.52
2019-03-03T10:47:19.907Z,99548.09
2019-03-03T10:50:01.415Z,99532.40
2019-03-03T10:52:59.566Z,99533.91
2019-03-03T10:55:51.627Z,99534.63
2019-03-03T10:58:43.327Z,99528.95
2019-03-03T11:01:35.586Z,99534.72
2019-03-03T11:04:25.768Z,99537.72
2019-03-03T11:07:23.788Z,99530.55
2019-03-03T11:10:09.358Z,99527.19
2019-03-03T11:12:45.103Z,99517.84
2019-03-03T11:15:42.616Z,99515.48
2019-03-03T11:18:30.075Z,99532.41
2019-03-03T11:21:25.064Z,99520.25
2019-03-03T11:24:19.788Z,99514.48
2019-03-03T11:27:17.376Z,99518.03
2019-03-03T11:29:56.257Z,99512.95
2019-03-03T11:32:47.894Z,99515.89
2019-03-03T11:35:25.565Z,99508.59
2019-03-03T11:38:07.508Z,99518.71
2019-03-03T11:40:55.189Z,99506.86
2019-03-03T11:43:51.408Z,99512.48
2019-03-03T11:46:33.036Z,99513.98
2019-03-03T11:49:37.387Z,99497.60
2019-03-03T11:52:22.819Z,99497.87
2019-03-03T11:55:14.936Z,99507.59
2019-03-03T11:57:51.337Z,99503.23
2019-03-03T12:00:42.091Z,99477.80
2019-03-03T12:03:34.281Z,99479.62
2019-03-03T12:06:23.982Z,99475.27
2019-03-03T12:09:12.628Z,99470.41
2019-03-03T12:12:14.013Z,99475.67
2019-03-03T12:15:17.919Z,99473.80
2019-03-03T12:17:53.110Z,99474.39
2019-03-03T12:20:36.356Z,99467.81
2019-03-03T12:23:34.075Z,99478.88
2019-03-03T12:26:14.149Z,99466.91
2019-03-03T12:29:09.239Z,99475.53
2019-03-03T12:31:58.358Z,99467.55
2019-03-03T12:34:36.620Z,99467.45
2019-03-03T12:37:28.542Z,99466.72
2019-03-03T12:40:16.345Z,99460.73
2019-03-03T12:43:01.560Z,99461.44
2019-03-03T12:45:38.070Z,99456.52
2019-03-03T12:48:21.210Z,99447.13
2019-03-03T12:51:02.134Z,99446.31
2019-03-03T12:53:53.975Z,99448.62
2019-03-03T12:56:36.575Z,99454.06
2019-03-03T12:59:24.400Z,99440.09
2019-03-03T13:02:13.174Z,99430.42
2019-03-03T13:04:52.022Z,99408.91
2019-03-03T13:07:43.768Z,99431.54
2019-03-03T13:10:35.597Z,99426.35
2019-03-03T13:13:23.372Z,99424.08
2019-03-03T13:16:15.048Z,99408.19
2019-03-03T13:18:51.084Z,99411.23
2019-03-03T13:21:33.357Z,99421.44
2019-03-03T13:24:18.722Z,99406.45
2019-03-03T13:26:57.484Z,99409.17
2019-03-03T13:29:46.256Z,99407.85
2019-03-03T13:32:33.357Z,99402.91
2019-03-03T13:35:14.978Z,99396.00
2019-03-03T13:38:01.700Z,99414.11
2019-03-03T13:40:41.002Z,99396.32
2019-03-03T13:43:10.883Z,99404.07
2019-03-03T13:45:40.749Z,99400.12
2019-03-03T13:48:10.974Z,99389.34
2019-03-03T13:50:42.090Z,99383.33
2019-03-03T13:53:12.125Z,99390.41
2019-03-03T13:55:41.889Z,99376.13
2019-03-03T13:58:12.161Z,99376.62
2019-03-03T14:00:42.184Z,99368.05
2019-03-03T14:03:12.351Z,99376.86
2019-03-03T14:05:42.139Z,99360.97
2019-03-03T14:08:11.962Z,99370.94
2019-03-03T14:10:41.794Z,99360.56
2019-03-03T14:13:11.710Z,99364.19
2019-03-03T14:15:41.889Z,99363.19
2019-03-03T14:18:12.023Z,99356.85
2019-03-03T14:20:41.887Z,99351.75
2019-03-03T14:23:11.651Z,99341.05
2019-03-03T14:25:41.606Z,99354.22
2019-03-03T14:28:11.623Z,99347.13
2019-03-03T14:30:41.292Z,99341.62
2019-03-03T14:33:11.148Z,99336.02
2019-03-03T14:35:40.879Z,99335.61
2019-03-03T14:38:10.893Z,99325.36
2019-03-03T14:40:41.053Z,99344.30
2019-03-03T14:43:10.833Z,99326.68
2019-03-03T14:45:40.611Z,99329.31
2019-03-03T14:48:10.411Z,99337.63
2019-03-03T14:50:40.188Z,99328.73
2019-03-03T14:53:10.179Z,99306.84
2019-03-03T14:55:40.238Z,99332.11
2019-03-03T14:58:10.289Z,99322.23
2019-03-03T15:00:40.410Z,99327.83
2019-03-03T15:03:10.274Z,99320.38
2019-03-03T15:05:40.082Z,99306.09
2019-03-03T15:08:10.193Z,99310.88
2019-03-03T15:10:40.012Z,99308.98
2019-03-03T15:13:09.886Z,99310.95
2019-03-03T15:15:40.028Z,99316.30
2019-03-03T15:18:10.160Z,99311.94
2019-03-03T15:20:40.171Z,99312.36
2019-03-03T15:23:10.049Z,99314.82
2019-03-03T15:25:39.807Z,99297.53
2019-03-03T15:28:09.700Z,99295.39
2019-03-03T15:30:39.493Z,99288.23
2019-03-03T15:33:09.543Z,99291.44
2019-03-03T15:35:39.332Z,99283.05
2019-03-03T15:38:09.310Z,99269.38
2019-03-03T15:40:39.711Z,99266.50
2019-03-03T15:43:09.392Z,99263.30
2019-03-03T15:45:39.237Z,99253.91
2019-03-03T15:48:09.013Z,99258.02
2019-03-03T15:50:38.783Z,99255.80
2019-03-03T15:53:09.083Z,99256.30
2019-03-03T15:55:38.849Z,99257.70
2019-03-03T15:58:08.639Z,99255.72
2019-03-03T16:00:38.922Z,99244.69
2019-03-03T16:03:08.688Z,99244.45
2019-03-03T16:05:38.498Z,99242.88
2019-03-03T16:08:08.294Z,99250.78
2019-03-03T16:10:37.961Z,99234.23
2019-03-03T16:13:07.786Z,99228.06
2019-03-03T16:15:37.926Z,99246.50
2019-03-03T16:18:07.722Z,99224.60
2019-03-03T16:20:37.605Z,99215.13
2019-03-03T16:23:07.575Z,99220.48
2019-03-03T16:25:37.262Z,99212.25
2019-03-03T16:28:07.082Z,99204.84
2019-03-03T16:30:37.016Z,99215.20
2019-03-03T16:33:06.837Z,99211.26
2019-03-03T16:35:36.594Z,99204.83
2019-03-03T16:38:06.420Z,99200.64
2019-03-03T16:40:39.576Z,99199.24
2019-03-03T16:43:09.252Z,99205.50
2019-03-03T16:45:39.076Z,99194.72
2019-03-03T16:48:09.867Z,99186.23
2019-03-03T16:50:40.552Z,99199.89
2019-03-03T16:53:10.371Z,99194.45
2019-03-03T16:55:40.235Z,99188.47
2019-03-03T16:58:10.103Z,99182.45
2019-03-03T17:00:40.386Z,99190.36
2019-03-03T17:03:10.220Z,99172.41
2019-03-03T17:05:40.316Z,99181.62
2019-03-03T17:08:10.133Z,99173.16
2019-03-03T17:10:40.262Z,99154.42
2019-03-03T17:13:09.962Z,99160.11
2019-03-03T17:15:39.835Z,99159.05
2019-03-03T17:18:09.792Z,99149.98
2019-03-03T17:20:39.754Z,99154.24
2019-03-03T17:23:09.594Z,99146.19
2019-03-03T17:25:39.387Z,99152.28
2019-03-03T17:28:09.149Z,99161.19
2019-03-03T17:30:39.495Z,99141.28
2019-03-03T17:33:10.303Z,99137.58
2019-03-03T17:35:40.019Z,99138.56
2019-03-03T17:38:10.131Z,99131.91
2019-03-03T17:40:39.951Z,99132.88
2019-03-03T17:43:09.916Z,99123.14
2019-03-03T17:45:41.340Z,99131.13
2019-03-03T17:48:11.131Z,99123.98
2019-03-03T17:50:40.944Z,99112.78
2019-03-03T17:53:10.926Z,99113.53
2019-03-03T17:55:40.736Z,99122.67
2019-03-03T17:58:10.811Z,99118.52
2019-03-03T18:00:42.815Z,99115.98
2019-03-03T18:03:12.567Z,99111.05
2019-03-03T18:05:42.658Z,99126.50
2019-03-03T18:08:12.484Z,99117.20
2019-03-03T18:10:42.333Z,99115.02
2019-03-03T18:13:12.152Z,99124.09
2019-03-03T18:15:41.948Z,99113.81
2019-03-03T18:18:12.179Z,99101.53
2019-03-03T18:20:41.926Z,99107.38
2019-03-03T18:23:14.871Z,99095.09
2019-03-03T18:25:44.154Z,99094.11
2019-03-03T18:28:14.197Z,99086.63
2019-03-03T18:30:44.123Z,99091.74
2019-03-03T18:33:14.341Z,99082.52
2019-03-03T18:35:44.185Z,99085.65
2019-03-03T18:38:14.024Z,99077.32
2019-03-03T18:40:44.778Z,99083.91
2019-03-03T18:43:14.958Z,99082.67
2019-03-03T18:45:44.692Z,99092.80
2019-03-03T18:48:14.451Z,99080.11
2019-03-03T18:50:44.259Z,99080.25
2019-03-03T18:53:14.086Z,99070.96
2019-03-03T18:55:44.292Z,99073.13
2019-03-03T18:58:14.196Z,99069.17
2019-03-03T19:00:44.112Z,99068.60
2019-03-03T19:03:14.498Z,99061.05
2019-03-03T19:05:44.516Z,99055.58
2019-03-03T19:08:15.094Z,99052.72
2019-03-03T19:10:45.504Z,99048.20
2019-03-03T19:13:15.265Z,99036.91
2019-03-03T19:15:45.221Z,99027.61
2019-03-03T19:18:15.317Z,99038.91
2019-03-03T19:20:45.137Z,99034.81
2019-03-03T19:23:15.279Z,99024.36
2019-03-03T19:25:45.016Z,99020.55
2019-03-03T19:28:14.815Z,99026.31
2019-03-03T19:30:44.804Z,99021.16
2019-03-03T19:33:18.226Z,99022.19
2019-03-03T19:35:48.262Z,99017.27
2019-03-03T19:38:18.145Z,99011.30
2019-03-03T19:40:48.007Z,99008.52
2019-03-03T19:43:17.796Z,99009.91
2019-03-03T19:45:47.740Z,99015.89
2019-03-03T19:48:18.287Z,98997.72
2019-03-03T19:50:48.212Z,98992.58
2019-03-03T19:53:17.993Z,98994.45
2019-03-03T19:55:48.077Z,98989.17
2019-03-03T19:58:18.176Z,98985.49
2019-03-03T20:00:48.375Z,99007.77
2019-03-03T20:03:18.216Z,98978.42
2019-03-03T20:05:48.038Z,98969.68
2019-03-03T20:08:18.508Z,98962.45
2019-03-03T20:10:49.232Z,98957.05
2019-03-03T20:13:19.226Z,98954.34
2019-03-03T20:15:49.011Z,98945.88
2019-03-03T20:18:19.858Z,98944.00
2019-03-03T20:20:49.690Z,98936.50
2019-03-03T20:23:19.637Z,98926.86
2019-03-03T20:25:49.729Z,98916.59
2019-03-03T20:28:19.531Z,98919.02
2019-03-03T20:30:50.608Z,98909.86
2019-03-03T20:33:20.993Z,98911.17
2019-03-03T20:35:50.771Z,98908.26
2019-03-03T20:38:20.546Z,98905.75
2019-03-03T20:40:50.373Z,98901.38
2019-03-03T20:43:20.121Z,98901.17
2019-03-03T20:45:49.847Z,98900.07
2019-03-03T20:48:19.626Z,98882.41
2019-03-03T20:50:49.641Z,98883.94
2019-03-03T20:53:19.521Z,98880.34
2019-03-03T20:55:49.351Z,98891.02
2019-03-03T20:58:19.462Z,98878.13
2019-03-03T21:00:49.344Z,98873.69
2019-03-03T21:03:19.167Z,98869.52
2019-03-03T21:05:48.961Z,98875.63
2019-03-03T21:08:18.702Z,98854.22
2019-03-03T21:10:48.771Z,98869.93
2019-03-03T21:13:18.500Z,98858.25
2019-03-03T21:15:48.717Z,98847.92
2019-03-03T21:18:18.417Z,98854.91
2019-03-03T21:20:48.470Z,98860.63
2019-03-03T21:23:18.640Z,98856.11
2019-03-03T21:25:48.328Z,98842.05
2019-03-03T21:28:18.171Z,98836.91
2019-03-03T21:30:48.069Z,98832.86
2019-03-03T21:33:17.860Z,98847.92
2019-03-03T21:35:47.686Z,98848.47
2019-03-03T21:38:17.426Z,98855.35
2019-03-03T21:40:47.241Z,98838.69
2019-03-03T21:43:17.044Z,98813.13
2019-03-03T21:45:46.749Z,98817.67
2019-03-03T21:48:16.485Z,98809.47
2019-03-03T21:50:46.221Z,98810.43
2019-03-03T21:53:16.391Z,98816.00
2019-03-03T21:55:46.548Z,98805.92
2019-03-03T21:58:16.233Z,98815.14
2019-03-03T22:00:46.019Z,98807.20
2019-03-03T22:03:16.040Z,98811.50
2019-03-03T22:05:45.877Z,98808.75
2019-03-03T22:08:16.802Z,98811.16
2019-03-03T22:10:46.665Z,98817.51
2019-03-03T22:13:16.405Z,98807.20
2019-03-03T22:15:46.145Z,98808.17
2019-03-03T22:18:15.986Z,98807.09
2019-03-03T22:20:46.092Z,98765.83
2019-03-03T22:23:15.826Z,98767.02
2019-03-03T22:25:45.569Z,98771.10
2019-03-03T22:28:15.330Z,98773.33
2019-03-03T22:30:45.096Z,98777.58
2019-03-03T22:33:14.856Z,98786.46
2019-03-03T22:35:44.520Z,98771.34
2019-03-03T22:38:14.620Z,98764.38
2019-03-03T22:40:44.441Z,98787.17
2019-03-03T22:43:14.189Z,98761.14
2019-03-03T22:45:44.202Z,98746.62
2019-03-03T22:48:13.952Z,98751.66
2019-03-03T22:50:43.649Z,98750.45
2019-03-03T22:53:13.419Z,98742.18
2019-03-03T22:55:43.196Z,98735.59
2019-03-03T22:58:13.061Z,98731.62
2019-03-03T23:01:09.168Z,98726.82
2019-03-03T23:03:44.232Z,98713.39
2019-03-03T23:06:35.550Z,98721.72
2019-03-03T23:09:48.621Z,98708.23
2019-03-03T23:12:49.293Z,98695.33
2019-03-03T23:15:40.180Z,98687.47
2019-03-03T23:18:33.041Z,98670.80
2019-03-03T23:21:37.078Z,98670.56
2019-03-03T23:24:49.437Z,98653.72
2019-03-03T23:27:19.220Z,98635.84
2019-03-03T23:29:48.888Z,98638.00
2019-03-03T23:32:18.929Z,98636.74
2019-03-03T23:34:48.674Z,98614.07
2019-03-03T23:37:18.717Z,98602.20
2019-03-03T23:39:48.488Z,98583.63
2019-03-03T23:42:18.252Z,98585.98
2019-03-03T23:44:48.121Z,98609.37
2019-03-03T23:47:17.921Z,98600.41
2019-03-03T23:49:47.973Z,98602.86
2019-03-03T23:52:17.673Z,98592.84
2019-03-03T23:54:47.386Z,98573.36
2019-03-03T23:57:17.413Z,98584.93
2019-03-03T23:59:47.083Z,98592.23
